createdAt,value
2023-04-29T00:03:04.373Z,83.36
2023-04-29T00:08:06.910Z,84.19
2023-04-29T00:13:09.187Z,86.43
2023-04-29T00:18:11.640Z,84.26
2023-04-29T00:23:13.879Z,83.77
2023-04-29T00:28:16.472Z,86.35
2023-04-29T00:33:18.927Z,87.89
2023-04-29T00:38:21.457Z,84.64
2023-04-29T00:43:24.438Z,83.92
2023-04-29T00:48:27.039Z,83.33
2023-04-29T00:53:29.341Z,83.20
2023-04-29T00:58:35.425Z,83.33
2023-04-29T01:03:37.983Z,83.13
2023-04-29T01:09:00.503Z,83.01
2023-04-29T01:14:04.390Z,82.50
2023-04-29T01:19:51.251Z,82.22
2023-04-29T01:24:55.474Z,83.98
2023-04-29T01:30:41.859Z,85.27
2023-04-29T01:36:19.787Z,83.38
2023-04-29T01:41:39.255Z,86.65
2023-04-29T01:46:57.703Z,85.22
2023-04-29T01:52:07.547Z,84.06
2023-04-29T01:57:10.925Z,84.86
2023-04-29T02:02:26.672Z,85.88
2023-04-29T02:07:37.221Z,84.28
2023-04-29T02:12:40.600Z,83.46
2023-04-29T02:17:43.552Z,84.88
2023-04-29T02:22:45.950Z,82.54
2023-04-29T02:34:54.433Z,83.27
2023-04-29T02:39:58.008Z,83.06
2023-04-29T02:45:01.136Z,82.70
2023-04-29T02:50:04.919Z,84.12
2023-04-29T02:55:09.014Z,85.01
2023-04-29T03:00:11.937Z,83.33
2023-04-29T03:05:14.377Z,83.23
2023-04-29T03:10:18.324Z,81.92
2023-04-29T03:15:20.569Z,85.31
2023-04-29T03:20:23.744Z,86.57
2023-04-29T03:25:26.028Z,85.47
2023-04-29T03:30:28.531Z,86.63
2023-04-29T03:35:33.272Z,86.18
2023-04-29T03:40:58.577Z,85.96
2023-04-29T03:46:00.991Z,86.36
2023-04-29T03:51:03.721Z,84.93
2023-04-29T03:56:07.225Z,89.88
2023-04-29T04:01:09.608Z,86.63
2023-04-29T04:06:18.682Z,87.86
2023-04-29T04:11:21.487Z,84.90
2023-04-29T04:16:32.456Z,86.08
2023-04-29T04:21:35.779Z,85.29
2023-04-29T04:26:42.491Z,82.28
2023-04-29T04:31:58.491Z,82.19
2023-04-29T04:37:01.560Z,86.82
2023-04-29T04:42:04.669Z,83.22
2023-04-29T04:47:08.650Z,85.33
2023-04-29T04:52:25.608Z,85.31
2023-04-29T04:57:48.192Z,80.64
2023-04-29T05:02:50.651Z,85.05
2023-04-29T05:07:52.901Z,81.44
2023-04-29T05:13:01.374Z,86.64
2023-04-29T05:18:03.893Z,86.41
2023-04-29T05:23:06.834Z,86.12
2023-04-29T05:28:13.871Z,84.41
2023-04-29T05:33:17.533Z,66.96
2023-04-29T05:38:20.056Z,69.22
2023-04-29T05:43:27.905Z,81.61
2023-04-29T05:48:31.717Z,82.37
2023-04-29T05:53:34.022Z,84.52
2023-04-29T05:58:36.677Z,84.11
2023-04-29T06:03:40.303Z,81.89
2023-04-29T06:09:03.147Z,83.11
2023-04-29T06:14:07.604Z,85.20
2023-04-29T06:19:10.063Z,85.02
2023-04-29T06:24:12.472Z,85.06
2023-04-29T06:29:14.728Z,84.84
2023-04-29T06:34:17.207Z,84.64
2023-04-29T06:39:34.740Z,82.94
2023-04-29T06:44:51.430Z,82.62
2023-04-29T06:50:11.682Z,79.28
2023-04-29T06:55:13.818Z,77.65
2023-04-29T07:00:21.044Z,76.41
2023-04-29T07:05:23.371Z,76.50
2023-04-29T07:10:26.543Z,75.27
2023-04-29T07:15:33.939Z,74.40
2023-04-29T07:20:37.726Z,75.32
2023-04-29T07:25:40.274Z,73.44
2023-04-29T07:30:42.490Z,75.51
2023-04-29T07:35:44.728Z,73.23
2023-04-29T07:40:47.001Z,73.94
2023-04-29T07:45:49.604Z,71.30
2023-04-29T07:50:51.928Z,73.45
2023-04-29T07:55:54.176Z,72.71
2023-04-29T08:00:57.986Z,69.88
2023-04-29T08:06:04.777Z,68.93
2023-04-29T08:11:07.178Z,67.27
2023-04-29T08:16:12.678Z,67.19
2023-04-29T08:21:15.011Z,67.58
2023-04-29T08:26:17.264Z,67.83
2023-04-29T08:31:21.457Z,68.60
2023-04-29T08:36:23.641Z,66.28
2023-04-29T08:41:25.861Z,67.25
2023-04-29T08:46:28.460Z,65.20
2023-04-29T08:51:32.286Z,64.49
2023-04-29T08:56:35.124Z,65.70
2023-04-29T09:01:38.122Z,63.68
2023-04-29T09:06:40.482Z,66.93
2023-04-29T09:11:42.621Z,65.08
2023-04-29T09:16:47.839Z,66.10
2023-04-29T09:21:58.432Z,64.14
2023-04-29T09:27:01.729Z,65.50
2023-04-29T09:32:20.570Z,65.05
2023-04-29T09:37:28.073Z,67.02
2023-04-29T09:42:30.277Z,65.06
2023-04-29T09:47:32.965Z,63.52
2023-04-29T09:52:44.192Z,64.92
2023-04-29T09:57:46.441Z,64.47
2023-04-29T10:02:51.069Z,65.14
2023-04-29T10:07:53.501Z,62.83
2023-04-29T10:12:56.295Z,64.58
2023-04-29T10:18:22.107Z,63.33
2023-04-29T10:23:25.671Z,64.14
2023-04-29T10:28:29.304Z,63.76
2023-04-29T10:33:33.985Z,63.92
2023-04-29T10:38:50.723Z,62.61
2023-04-29T10:43:53.872Z,63.34
2023-04-29T10:49:07.092Z,61.85
2023-04-29T10:54:10.821Z,63.61
2023-04-29T10:59:16.227Z,60.69
2023-04-29T11:04:23.311Z,62.19
2023-04-29T11:09:27.948Z,61.90
2023-04-29T11:14:49.776Z,62.63
2023-04-29T11:19:53.171Z,61.49
2023-04-29T11:25:11.507Z,62.03
2023-04-29T11:30:14.234Z,61.88
2023-04-29T11:35:19.908Z,62.92
2023-04-29T11:40:22.147Z,62.30
2023-04-29T11:45:24.718Z,62.38
2023-04-29T11:50:27.123Z,61.63
2023-04-29T11:55:29.432Z,61.17
2023-04-29T12:00:32.089Z,59.90
2023-04-29T12:05:34.261Z,59.64
2023-04-29T12:10:37.218Z,59.66
2023-04-29T12:15:40.326Z,58.82
2023-04-29T12:20:42.783Z,57.73
2023-04-29T12:25:56.629Z,59.00
2023-04-29T12:30:59.787Z,60.45
2023-04-29T12:36:02.393Z,58.52
2023-04-29T12:41:07.935Z,57.71
2023-04-29T12:46:12.889Z,58.13
2023-04-29T12:51:16.494Z,58.82
2023-04-29T12:56:18.715Z,58.76
2023-04-29T13:01:21.025Z,58.95
2023-04-29T13:06:23.706Z,59.83
2023-04-29T13:11:30.953Z,59.92
2023-04-29T13:16:36.942Z,58.67
2023-04-29T13:21:39.724Z,57.18
2023-04-29T13:26:41.871Z,59.36
2023-04-29T13:31:44.238Z,58.99
2023-04-29T13:36:46.872Z,58.37
2023-04-29T13:41:49.040Z,58.71
2023-04-29T13:46:52.215Z,58.25
2023-04-29T13:52:37.590Z,59.59
2023-04-29T13:58:12.404Z,58.47
2023-04-29T14:02:39.663Z,58.83
2023-04-29T14:07:42.073Z,59.58
2023-04-29T14:12:44.296Z,58.87
2023-04-29T14:17:46.623Z,58.01
2023-04-29T14:22:48.951Z,57.72
2023-04-29T14:27:51.208Z,57.00
2023-04-29T14:32:53.374Z,56.24
2023-04-29T14:37:55.651Z,56.14
2023-04-29T14:42:57.854Z,59.02
2023-04-29T14:48:00.060Z,57.14
2023-04-29T14:53:02.264Z,56.93
2023-04-29T14:58:05.090Z,58.25
2023-04-29T15:03:07.441Z,58.48
2023-04-29T15:08:09.715Z,58.50
2023-04-29T15:13:12.047Z,57.31
2023-04-29T15:18:14.391Z,58.37
2023-04-29T15:23:16.748Z,58.55
2023-04-29T15:28:19.086Z,59.19
2023-04-29T15:33:21.412Z,59.01
2023-04-29T15:38:23.865Z,60.56
2023-04-29T15:43:28.998Z,58.79
2023-04-29T15:48:31.141Z,59.09
2023-04-29T15:53:33.235Z,58.55
2023-04-29T15:58:35.450Z,57.97
2023-04-29T16:03:37.620Z,57.86
2023-04-29T16:08:39.770Z,58.69
2023-04-29T16:13:42.200Z,58.60
2023-04-29T16:18:44.755Z,57.34
2023-04-29T16:23:47.073Z,57.85
2023-04-29T16:28:49.199Z,58.41
2023-04-29T16:33:51.308Z,59.31
2023-04-29T16:38:56.206Z,61.25
2023-04-29T16:43:58.981Z,57.61
2023-04-29T16:49:01.304Z,57.22
2023-04-29T16:54:03.707Z,59.32
2023-04-29T16:59:05.848Z,58.46
2023-04-29T17:04:09.080Z,59.24
2023-04-29T17:09:11.453Z,57.94
2023-04-29T17:14:13.562Z,58.79
2023-04-29T17:19:16.780Z,58.85
2023-04-29T17:24:19.043Z,59.72
2023-04-29T17:29:21.580Z,61.22
2023-04-29T17:34:25.417Z,60.04
2023-04-29T17:39:27.604Z,59.54
2023-04-29T17:44:29.952Z,60.64
2023-04-29T17:49:32.181Z,61.49
2023-04-29T17:54:34.602Z,61.91
2023-04-29T17:59:36.814Z,62.40
2023-04-29T18:04:40.721Z,63.38
2023-04-29T18:09:42.825Z,63.63
2023-04-29T18:14:46.681Z,62.97
2023-04-29T18:19:49.769Z,63.13
2023-04-29T18:24:52.025Z,63.31
2023-04-29T18:29:54.478Z,61.83
2023-04-29T18:34:57.649Z,63.49
2023-04-29T18:39:59.840Z,65.21
2023-04-29T18:45:02.116Z,63.86
2023-04-29T18:50:04.761Z,64.85
2023-04-29T18:55:08.093Z,65.05
2023-04-29T19:00:11.352Z,65.70
2023-04-29T19:05:13.952Z,67.27
2023-04-29T19:10:16.057Z,67.92
2023-04-29T19:15:18.580Z,67.24
2023-04-29T19:20:20.986Z,67.81
2023-04-29T19:25:25.921Z,69.04
2023-04-29T19:30:28.165Z,71.03
2023-04-29T19:35:30.451Z,69.86
2023-04-29T19:40:32.738Z,70.11
2023-04-29T19:45:36.187Z,71.60
2023-04-29T19:50:40.027Z,70.83
2023-04-29T19:55:42.412Z,71.74
2023-04-29T20:00:44.583Z,71.51
2023-04-29T20:05:47.354Z,70.13
2023-04-29T20:10:49.606Z,70.73
2023-04-29T20:15:51.904Z,69.35
2023-04-29T20:20:54.006Z,69.42
2023-04-29T20:25:56.828Z,70.88
2023-04-29T20:30:58.939Z,70.49
2023-04-29T20:36:06.482Z,71.20
2023-04-29T20:41:08.717Z,70.47
2023-04-29T20:46:12.910Z,69.20
2023-04-29T20:51:40.471Z,69.91
2023-04-29T20:56:42.712Z,69.15
2023-04-29T21:01:46.302Z,68.57
2023-04-29T21:06:50.684Z,67.49
2023-04-29T21:11:53.661Z,68.78
2023-04-29T21:16:55.931Z,67.79
2023-04-29T21:21:58.173Z,70.35
2023-04-29T21:27:00.705Z,68.47
2023-04-29T21:32:03.138Z,66.97
2023-04-29T21:37:05.297Z,69.03
2023-04-29T21:42:09.670Z,67.93
2023-04-29T21:47:11.949Z,68.08
2023-04-29T21:52:14.119Z,69.75
2023-04-29T21:57:16.282Z,70.15
2023-04-29T22:02:27.438Z,68.10
2023-04-29T22:07:29.782Z,69.09
2023-04-29T22:12:32.039Z,69.75
2023-04-29T22:17:34.289Z,68.85
2023-04-29T22:22:36.539Z,67.39
2023-04-29T22:27:38.663Z,68.01
2023-04-29T22:32:41.198Z,69.07
2023-04-29T22:37:43.359Z,68.57
2023-04-29T22:42:46.078Z,71.61
2023-04-29T22:47:48.342Z,68.63
2023-04-29T22:52:50.593Z,69.31
2023-04-29T22:57:52.704Z,73.02
2023-04-29T23:02:54.824Z,70.26
2023-04-29T23:07:57.166Z,71.65
2023-04-29T23:12:59.643Z,71.79
2023-04-29T23:18:01.868Z,71.02
2023-04-29T23:23:04.727Z,69.39
2023-04-29T23:28:06.885Z,73.90
2023-04-29T23:33:09.420Z,74.04
2023-04-29T23:38:11.786Z,72.17
2023-04-29T23:43:17.309Z,72.85
2023-04-29T23:48:19.454Z,69.87
2023-04-29T23:53:21.641Z,74.89
2023-04-29T23:58:24.026Z,74.00
